M/V Polaris Melody — 3FHJ9 — position and weather

sailwx.info

Track history (hours):
 
Tides and Currents Weather Stations Pressure Air Temp Water Temp Dewpoint Dewpoint Depression Visibility Wind Speed Wind Dir Waves Ship Positions

M/V Polaris Melody

Last reported at 2017-Nov-04 11:41 UTC. Time now 2017-Nov-19 21:59 UTC.
Position N 01°15' E 104°04'.
Warning: this ship's position is 15 days out of date.

Length 180 m; draft 6.7 m.

Type: Cargo ship. MMSI: 370734000.

Date/timePositionNaut miles runAvg speedWind from/ knotsBaromVisibWave heightAir tempDewpointWater temp
2017-Nov-04 11:41N 01°15' E 104°04'4 7.9
2017-Nov-04 11:08N 01°18' E 104°01'0 0.1
2017-Nov-04 09:15N 01°18' E 104°01'0 0.0
2017-Nov-04 03:45N 01°18' E 104°01'0 0.3
2017-Nov-04 03:25N 01°18' E 104°01'1 2.4
2017-Nov-04 03:00N 01°17' E 104°00'2 4.4
2017-Nov-04 02:31N 01°16' E 103°58'2 3.7
2017-Nov-04 01:57N 01°16' E 104°00'3 5.8
2017-Nov-04 01:31N 01°16' E 104°03'  
2017-Oct-26 13:03N 01°15' E 104°04'0 5.6
2017-Oct-26 12:58N 01°15' E 104°04'3 5.8
2017-Oct-26 12:30N 01°14' E 104°01'3 6.5
2017-Oct-26 12:00N 01°14' E 103°58'5 9.8
2017-Oct-26 11:30N 01°12' E 103°53'713.5
2017-Oct-26 11:00N 01°09' E 103°47'612.6
2017-Oct-26 10:30N 01°05' E 103°43'510.6
2017-Oct-26 09:59N 01°03' E 103°37'611.2
2017-Oct-26 09:30N 01°06' E 103°33'611.1
2017-Oct-26 08:59N 01°09' E 103°28'611.3
2017-Oct-26 08:29N 01°13' E 103°23'611.1
2017-Oct-26 07:57N 01°17' E 103°19'  
Track history (hours):
 
Tides and Currents Weather Stations Pressure Air Temp Water Temp Dewpoint Dewpoint Depression Visibility Wind Speed Wind Dir Waves Ship Positions

M/V Polaris Melody

Last reported at 2017-Nov-04 11:41 UTC. Time now 2017-Nov-19 21:59 UTC.
Position N 01°15' E 104°04'.
Warning: this ship's position is 15 days out of date.

Length 180 m; draft 6.7 m.

Type: Cargo ship. MMSI: 370734000.

Date/timePositionNaut miles runAvg speedWind from/ knotsBaromVisibWave heightAir tempDewpointWater temp
2017-Nov-04 11:41N 01°15' E 104°04'4 7.9
2017-Nov-04 11:08N 01°18' E 104°01'0 0.1
2017-Nov-04 09:15N 01°18' E 104°01'0 0.0
2017-Nov-04 03:45N 01°18' E 104°01'0 0.3
2017-Nov-04 03:25N 01°18' E 104°01'1 2.4
2017-Nov-04 03:00N 01°17' E 104°00'2 4.4
2017-Nov-04 02:31N 01°16' E 103°58'2 3.7
2017-Nov-04 01:57N 01°16' E 104°00'3 5.8
2017-Nov-04 01:31N 01°16' E 104°03'  
2017-Oct-26 13:03N 01°15' E 104°04'0 5.6
2017-Oct-26 12:58N 01°15' E 104°04'3 5.8
2017-Oct-26 12:30N 01°14' E 104°01'3 6.5
2017-Oct-26 12:00N 01°14' E 103°58'5 9.8
2017-Oct-26 11:30N 01°12' E 103°53'713.5
2017-Oct-26 11:00N 01°09' E 103°47'612.6
2017-Oct-26 10:30N 01°05' E 103°43'510.6
2017-Oct-26 09:59N 01°03' E 103°37'611.2
2017-Oct-26 09:30N 01°06' E 103°33'611.1
2017-Oct-26 08:59N 01°09' E 103°28'611.3
2017-Oct-26 08:29N 01°13' E 103°23'611.1
2017-Oct-26 07:57N 01°17' E 103°19'  

Dump ship's entire track history